sensor_id;sensor_type;location;lat;lon;timestamp;temperature;humidity
336;DHT22;156;48.738;9.228;2023-03-23T00:00:56;13.30;1.00
336;DHT22;156;48.738;9.228;2023-03-23T00:03:24;13.30;1.00
336;DHT22;156;48.738;9.228;2023-03-23T00:05:54;13.20;1.00
336;DHT22;156;48.738;9.228;2023-03-23T00:08:25;13.20;1.00
336;DHT22;156;48.738;9.228;2023-03-23T00:10:52;13.20;1.00
336;DHT22;156;48.738;9.228;2023-03-23T00:13:22;13.10;1.00
336;DHT22;156;48.738;9.228;2023-03-23T00:15:49;13.00;1.00
336;DHT22;156;48.738;9.228;2023-03-23T00:18:18;13.10;1.00
336;DHT22;156;48.738;9.228;2023-03-23T00:20:51;13.10;1.00
336;DHT22;156;48.738;9.228;2023-03-23T00:23:21;13.00;1.00
336;DHT22;156;48.738;9.228;2023-03-23T00:25:50;13.00;1.00
336;DHT22;156;48.738;9.228;2023-03-23T00:28:19;13.00;1.00
336;DHT22;156;48.738;9.228;2023-03-23T00:30:54;13.00;1.00
336;DHT22;156;48.738;9.228;2023-03-23T00:33:22;13.00;1.00
336;DHT22;156;48.738;9.228;2023-03-23T00:35:51;13.00;1.00
336;DHT22;156;48.738;9.228;2023-03-23T00:38:18;13.10;1.00
336;DHT22;156;48.738;9.228;2023-03-23T00:40:45;13.00;1.00
336;DHT22;156;48.738;9.228;2023-03-23T00:43:13;13.00;1.00
336;DHT22;156;48.738;9.228;2023-03-23T00:45:42;13.00;1.00
336;DHT22;156;48.738;9.228;2023-03-23T00:48:10;13.00;1.00
336;DHT22;156;48.738;9.228;2023-03-23T00:50:39;13.00;1.00
336;DHT22;156;48.738;9.228;2023-03-23T00:53:07;12.90;1.00
336;DHT22;156;48.738;9.228;2023-03-23T00:55:34;12.90;1.00
336;DHT22;156;48.738;9.228;2023-03-23T00:58:01;13.00;1.00
336;DHT22;156;48.738;9.228;2023-03-23T01:00:28;13.00;1.00
336;DHT22;156;48.738;9.228;2023-03-23T01:02:55;13.10;1.00
336;DHT22;156;48.738;9.228;2023-03-23T01:05:22;13.10;1.00
336;DHT22;156;48.738;9.228;2023-03-23T01:07:49;13.10;1.00
336;DHT22;156;48.738;9.228;2023-03-23T01:10:17;13.10;1.00
336;DHT22;156;48.738;9.228;2023-03-23T01:12:45;13.00;1.00
336;DHT22;156;48.738;9.228;2023-03-23T01:15:16;13.00;1.00
336;DHT22;156;48.738;9.228;2023-03-23T01:17:43;12.90;1.00
336;DHT22;156;48.738;9.228;2023-03-23T01:20:11;12.90;1.00
336;DHT22;156;48.738;9.228;2023-03-23T01:22:38;12.90;1.00
336;DHT22;156;48.738;9.228;2023-03-23T01:25:06;13.00;1.00
336;DHT22;156;48.738;9.228;2023-03-23T01:27:37;13.00;1.00
336;DHT22;156;48.738;9.228;2023-03-23T01:30:05;13.00;1.00
336;DHT22;156;48.738;9.228;2023-03-23T01:32:33;13.00;1.00
336;DHT22;156;48.738;9.228;2023-03-23T01:35:00;13.00;1.00
336;DHT22;156;48.738;9.228;2023-03-23T01:37:27;13.00;1.00
336;DHT22;156;48.738;9.228;2023-03-23T01:39:55;13.00;1.00
336;DHT22;156;48.738;9.228;2023-03-23T01:42:22;13.00;1.00
336;DHT22;156;48.738;9.228;2023-03-23T01:45:23;13.00;1.00
336;DHT22;156;48.738;9.228;2023-03-23T01:47:55;13.00;1.00
336;DHT22;156;48.738;9.228;2023-03-23T01:50:25;13.00;1.00
336;DHT22;156;48.738;9.228;2023-03-23T01:52:54;13.00;1.00
336;DHT22;156;48.738;9.228;2023-03-23T01:55:22;13.00;1.00
336;DHT22;156;48.738;9.228;2023-03-23T02:03:46;13.00;1.00
336;DHT22;156;48.738;9.228;2023-03-23T02:06:58;13.00;1.00
336;DHT22;156;48.738;9.228;2023-03-23T02:10:11;13.00;1.00
336;DHT22;156;48.738;9.228;2023-03-23T02:13:04;13.00;1.00
336;DHT22;156;48.738;9.228;2023-03-23T02:16:21;13.00;1.00
336;DHT22;156;48.738;9.228;2023-03-23T02:19:44;13.10;1.00
336;DHT22;156;48.738;9.228;2023-03-23T02:36:04;12.90;1.00
336;DHT22;156;48.738;9.228;2023-03-23T02:49:51;13.00;1.00
336;DHT22;156;48.738;9.228;2023-03-23T02:52:37;12.90;1.00
336;DHT22;156;48.738;9.228;2023-03-23T02:55:31;13.00;1.00
336;DHT22;156;48.738;9.228;2023-03-23T03:04:34;13.00;1.00
336;DHT22;156;48.738;9.228;2023-03-23T03:07:30;13.00;1.00
336;DHT22;156;48.738;9.228;2023-03-23T03:10:14;13.00;1.00
336;DHT22;156;48.738;9.228;2023-03-23T03:13:10;13.00;1.00
336;DHT22;156;48.738;9.228;2023-03-23T03:19:16;13.00;1.00
336;DHT22;156;48.738;9.228;2023-03-23T03:22:08;12.90;1.00
336;DHT22;156;48.738;9.228;2023-03-23T03:24:41;12.80;1.00
336;DHT22;156;48.738;9.228;2023-03-23T03:27:32;12.80;1.00
336;DHT22;156;48.738;9.228;2023-03-23T03:30:12;12.70;1.00
336;DHT22;156;48.738;9.228;2023-03-23T03:33:06;12.70;1.00
336;DHT22;156;48.738;9.228;2023-03-23T03:38:51;12.60;1.00
336;DHT22;156;48.738;9.228;2023-03-23T03:41:36;12.60;1.00
336;DHT22;156;48.738;9.228;2023-03-23T03:44:21;12.60;1.00
336;DHT22;156;48.738;9.228;2023-03-23T03:47:04;12.60;1.00
336;DHT22;156;48.738;9.228;2023-03-23T03:49:49;12.70;1.00
336;DHT22;156;48.738;9.228;2023-03-23T03:55:27;12.70;1.00
336;DHT22;156;48.738;9.228;2023-03-23T03:58:23;12.60;1.00
336;DHT22;156;48.738;9.228;2023-03-23T04:01:11;12.70;1.00
336;DHT22;156;48.738;9.228;2023-03-23T04:04:01;13.40;1.00
336;DHT22;156;48.738;9.228;2023-03-23T04:12:18;12.90;1.00
336;DHT22;156;48.738;9.228;2023-03-23T04:14:57;13.00;1.00
336;DHT22;156;48.738;9.228;2023-03-23T04:17:49;13.00;1.00
336;DHT22;156;48.738;9.228;2023-03-23T04:20:27;13.00;1.00
336;DHT22;156;48.738;9.228;2023-03-23T04:22:59;13.10;1.00
336;DHT22;156;48.738;9.228;2023-03-23T04:26:05;13.00;1.00
336;DHT22;156;48.738;9.228;2023-03-23T04:28:51;13.00;1.00
336;DHT22;156;48.738;9.228;2023-03-23T04:31:25;13.20;1.00
336;DHT22;156;48.738;9.228;2023-03-23T04:34:05;13.10;1.00
336;DHT22;156;48.738;9.228;2023-03-23T04:36:52;13.20;1.00
336;DHT22;156;48.738;9.228;2023-03-23T04:39:32;13.30;1.00
336;DHT22;156;48.738;9.228;2023-03-23T04:42:08;13.20;1.00
336;DHT22;156;48.738;9.228;2023-03-23T04:44:43;13.50;1.00
336;DHT22;156;48.738;9.228;2023-03-23T04:47:30;13.80;1.00
336;DHT22;156;48.738;9.228;2023-03-23T04:50:17;13.40;1.00
336;DHT22;156;48.738;9.228;2023-03-23T04:52:53;13.40;1.00
336;DHT22;156;48.738;9.228;2023-03-23T04:55:32;13.40;1.00
336;DHT22;156;48.738;9.228;2023-03-23T04:58:20;13.50;1.00
336;DHT22;156;48.738;9.228;2023-03-23T05:00:57;13.40;1.00
336;DHT22;156;48.738;9.228;2023-03-23T05:03:44;13.50;1.00
336;DHT22;156;48.738;9.228;2023-03-23T05:06:52;13.40;1.00
336;DHT22;156;48.738;9.228;2023-03-23T05:09:39;13.50;1.00
336;DHT22;156;48.738;9.228;2023-03-23T05:15:24;13.40;1.00
336;DHT22;156;48.738;9.228;2023-03-23T05:21:08;13.40;1.00
336;DHT22;156;48.738;9.228;2023-03-23T05:27:14;13.40;1.00
336;DHT22;156;48.738;9.228;2023-03-23T05:29:48;13.50;1.00
336;DHT22;156;48.738;9.228;2023-03-23T05:32:38;13.40;1.00
336;DHT22;156;48.738;9.228;2023-03-23T05:35:59;13.40;1.00
336;DHT22;156;48.738;9.228;2023-03-23T05:38:42;13.50;1.00
336;DHT22;156;48.738;9.228;2023-03-23T05:41:28;13.80;1.00
336;DHT22;156;48.738;9.228;2023-03-23T05:47:15;13.40;1.00
336;DHT22;156;48.738;9.228;2023-03-23T05:49:59;13.50;1.00
336;DHT22;156;48.738;9.228;2023-03-23T05:52:58;13.60;1.00
336;DHT22;156;48.738;9.228;2023-03-23T05:55:46;13.70;1.00
336;DHT22;156;48.738;9.228;2023-03-23T05:58:35;13.60;1.00
336;DHT22;156;48.738;9.228;2023-03-23T06:01:18;13.50;1.00
336;DHT22;156;48.738;9.228;2023-03-23T06:03:58;13.50;1.00
336;DHT22;156;48.738;9.228;2023-03-23T06:06:45;13.40;1.00
336;DHT22;156;48.738;9.228;2023-03-23T06:09:25;13.50;1.00
336;DHT22;156;48.738;9.228;2023-03-23T06:11:56;13.40;1.00
336;DHT22;156;48.738;9.228;2023-03-23T06:14:43;13.40;1.00
336;DHT22;156;48.738;9.228;2023-03-23T06:17:24;13.40;1.00
336;DHT22;156;48.738;9.228;2023-03-23T06:20:13;13.40;1.00
336;DHT22;156;48.738;9.228;2023-03-23T06:22:43;13.40;1.00
336;DHT22;156;48.738;9.228;2023-03-23T06:25:11;13.40;1.00
336;DHT22;156;48.738;9.228;2023-03-23T06:27:50;13.50;1.00
336;DHT22;156;48.738;9.228;2023-03-23T06:30:21;13.50;1.00
336;DHT22;156;48.738;9.228;2023-03-23T06:32:54;13.50;1.00
336;DHT22;156;48.738;9.228;2023-03-23T06:35:26;13.50;1.00
336;DHT22;156;48.738;9.228;2023-03-23T06:37:56;13.60;1.00
336;DHT22;156;48.738;9.228;2023-03-23T06:40:35;13.60;1.00
336;DHT22;156;48.738;9.228;2023-03-23T06:43:02;13.60;1.00
336;DHT22;156;48.738;9.228;2023-03-23T06:45:41;13.60;1.00
336;DHT22;156;48.738;9.228;2023-03-23T06:48:16;13.50;1.00
336;DHT22;156;48.738;9.228;2023-03-23T06:50:54;13.60;1.00
336;DHT22;156;48.738;9.228;2023-03-23T06:53:30;13.60;1.00
336;DHT22;156;48.738;9.228;2023-03-23T06:56:04;13.60;1.00
336;DHT22;156;48.738;9.228;2023-03-23T06:58:37;13.80;1.00
336;DHT22;156;48.738;9.228;2023-03-23T07:01:12;13.80;1.00
336;DHT22;156;48.738;9.228;2023-03-23T07:03:46;13.90;1.00
336;DHT22;156;48.738;9.228;2023-03-23T07:06:14;13.90;1.00
336;DHT22;156;48.738;9.228;2023-03-23T07:08:47;13.90;1.00
336;DHT22;156;48.738;9.228;2023-03-23T07:11:26;13.90;1.00
336;DHT22;156;48.738;9.228;2023-03-23T07:13:59;13.90;1.00
336;DHT22;156;48.738;9.228;2023-03-23T07:16:42;13.90;1.00
336;DHT22;156;48.738;9.228;2023-03-23T07:19:11;14.00;1.00
336;DHT22;156;48.738;9.228;2023-03-23T07:21:43;13.90;1.00
336;DHT22;156;48.738;9.228;2023-03-23T07:24:13;13.90;1.00
336;DHT22;156;48.738;9.228;2023-03-23T07:26:57;14.00;1.00
336;DHT22;156;48.738;9.228;2023-03-23T07:29:29;13.90;1.00
336;DHT22;156;48.738;9.228;2023-03-23T07:31:56;14.00;1.00
336;DHT22;156;48.738;9.228;2023-03-23T07:34:23;14.00;1.00
336;DHT22;156;48.738;9.228;2023-03-23T07:36:50;14.00;1.00
336;DHT22;156;48.738;9.228;2023-03-23T07:39:17;14.10;1.00
336;DHT22;156;48.738;9.228;2023-03-23T07:41:45;14.20;1.00
336;DHT22;156;48.738;9.228;2023-03-23T07:44:12;14.20;1.00
336;DHT22;156;48.738;9.228;2023-03-23T07:46:39;14.20;1.00
336;DHT22;156;48.738;9.228;2023-03-23T07:49:09;14.30;1.00
336;DHT22;156;48.738;9.228;2023-03-23T07:51:36;14.40;1.00
336;DHT22;156;48.738;9.228;2023-03-23T07:54:05;14.40;1.00
336;DHT22;156;48.738;9.228;2023-03-23T07:56:33;14.40;1.00
336;DHT22;156;48.738;9.228;2023-03-23T07:59:02;14.50;1.00
336;DHT22;156;48.738;9.228;2023-03-23T08:01:30;14.70;1.00
336;DHT22;156;48.738;9.228;2023-03-23T08:03:57;14.80;1.00
336;DHT22;156;48.738;9.228;2023-03-23T08:06:25;14.60;1.00
336;DHT22;156;48.738;9.228;2023-03-23T08:08:52;14.50;1.00
336;DHT22;156;48.738;9.228;2023-03-23T08:11:19;14.50;1.00
336;DHT22;156;48.738;9.228;2023-03-23T08:13:47;14.40;1.00
336;DHT22;156;48.738;9.228;2023-03-23T08:16:15;14.50;1.00
336;DHT22;156;48.738;9.228;2023-03-23T08:18:42;14.60;1.00
336;DHT22;156;48.738;9.228;2023-03-23T08:21:08;14.50;1.00
336;DHT22;156;48.738;9.228;2023-03-23T08:23:36;14.60;1.00
336;DHT22;156;48.738;9.228;2023-03-23T08:26:08;14.50;1.00
336;DHT22;156;48.738;9.228;2023-03-23T08:28:35;14.50;1.00
336;DHT22;156;48.738;9.228;2023-03-23T08:31:06;14.60;1.00
336;DHT22;156;48.738;9.228;2023-03-23T08:33:34;14.70;1.00
336;DHT22;156;48.738;9.228;2023-03-23T08:36:02;14.80;1.00
336;DHT22;156;48.738;9.228;2023-03-23T08:38:30;14.80;1.00
336;DHT22;156;48.738;9.228;2023-03-23T08:41:00;14.60;1.00
336;DHT22;156;48.738;9.228;2023-03-23T08:43:28;14.60;1.00
336;DHT22;156;48.738;9.228;2023-03-23T08:45:55;14.80;1.00
336;DHT22;156;48.738;9.228;2023-03-23T08:48:22;14.80;1.00
336;DHT22;156;48.738;9.228;2023-03-23T08:50:50;14.90;1.00
336;DHT22;156;48.738;9.228;2023-03-23T08:53:18;15.00;1.00
336;DHT22;156;48.738;9.228;2023-03-23T08:55:46;14.70;1.00
336;DHT22;156;48.738;9.228;2023-03-23T08:58:13;14.70;1.00
336;DHT22;156;48.738;9.228;2023-03-23T09:00:40;14.80;1.00
336;DHT22;156;48.738;9.228;2023-03-23T09:03:07;14.90;1.00
336;DHT22;156;48.738;9.228;2023-03-23T09:05:34;14.70;1.00
336;DHT22;156;48.738;9.228;2023-03-23T09:08:04;14.80;1.00
336;DHT22;156;48.738;9.228;2023-03-23T09:10:31;14.60;1.00
336;DHT22;156;48.738;9.228;2023-03-23T09:12:58;14.70;1.00
336;DHT22;156;48.738;9.228;2023-03-23T09:15:25;14.80;1.00
336;DHT22;156;48.738;9.228;2023-03-23T09:17:52;14.80;1.00
336;DHT22;156;48.738;9.228;2023-03-23T09:20:22;15.00;1.00
336;DHT22;156;48.738;9.228;2023-03-23T09:22:50;14.90;1.00
336;DHT22;156;48.738;9.228;2023-03-23T09:25:21;15.10;1.00
336;DHT22;156;48.738;9.228;2023-03-23T09:27:49;15.30;1.00
336;DHT22;156;48.738;9.228;2023-03-23T09:30:19;15.20;1.00
336;DHT22;156;48.738;9.228;2023-03-23T09:32:47;15.50;1.00
336;DHT22;156;48.738;9.228;2023-03-23T09:35:15;15.50;1.00
336;DHT22;156;48.738;9.228;2023-03-23T09:37:43;15.60;1.00
336;DHT22;156;48.738;9.228;2023-03-23T09:40:13;15.40;1.00
336;DHT22;156;48.738;9.228;2023-03-23T09:45:43;15.00;1.00
336;DHT22;156;48.738;9.228;2023-03-23T09:48:27;14.90;1.00
336;DHT22;156;48.738;9.228;2023-03-23T09:51:01;14.90;1.00
336;DHT22;156;48.738;9.228;2023-03-23T09:53:34;14.80;1.00
336;DHT22;156;48.738;9.228;2023-03-23T09:56:09;14.90;1.00
336;DHT22;156;48.738;9.228;2023-03-23T09:58:45;14.90;1.00
336;DHT22;156;48.738;9.228;2023-03-23T10:01:17;14.80;1.00
336;DHT22;156;48.738;9.228;2023-03-23T10:03:46;14.80;1.00
336;DHT22;156;48.738;9.228;2023-03-23T10:06:16;15.00;1.00
336;DHT22;156;48.738;9.228;2023-03-23T10:08:45;14.80;1.00
336;DHT22;156;48.738;9.228;2023-03-23T10:11:19;14.90;1.00
336;DHT22;156;48.738;9.228;2023-03-23T10:14:07;14.80;1.00
336;DHT22;156;48.738;9.228;2023-03-23T10:16:40;14.90;1.00
336;DHT22;156;48.738;9.228;2023-03-23T10:19:11;15.20;1.00
336;DHT22;156;48.738;9.228;2023-03-23T10:21:43;15.00;1.00
336;DHT22;156;48.738;9.228;2023-03-23T10:24:15;15.10;1.00
336;DHT22;156;48.738;9.228;2023-03-23T10:26:55;15.20;1.00
336;DHT22;156;48.738;9.228;2023-03-23T10:29:28;15.20;1.00
336;DHT22;156;48.738;9.228;2023-03-23T10:31:59;15.40;1.00
336;DHT22;156;48.738;9.228;2023-03-23T10:34:31;15.50;1.00
336;DHT22;156;48.738;9.228;2023-03-23T10:37:04;15.40;1.00
336;DHT22;156;48.738;9.228;2023-03-23T10:39:41;15.20;1.00
336;DHT22;156;48.738;9.228;2023-03-23T10:42:35;15.20;1.00
336;DHT22;156;48.738;9.228;2023-03-23T10:45:15;15.30;1.00
336;DHT22;156;48.738;9.228;2023-03-23T10:47:52;15.00;1.00
336;DHT22;156;48.738;9.228;2023-03-23T10:50:25;15.20;1.00
336;DHT22;156;48.738;9.228;2023-03-23T10:53:07;15.20;1.00
336;DHT22;156;48.738;9.228;2023-03-23T10:55:42;15.40;1.00
336;DHT22;156;48.738;9.228;2023-03-23T10:58:25;15.50;1.00
336;DHT22;156;48.738;9.228;2023-03-23T11:01:10;15.40;1.00
336;DHT22;156;48.738;9.228;2023-03-23T11:03:42;15.50;1.00
336;DHT22;156;48.738;9.228;2023-03-23T11:06:18;15.60;1.00
336;DHT22;156;48.738;9.228;2023-03-23T11:09:10;15.50;1.00
336;DHT22;156;48.738;9.228;2023-03-23T11:11:50;15.50;1.00
336;DHT22;156;48.738;9.228;2023-03-23T11:14:24;15.50;1.00
336;DHT22;156;48.738;9.228;2023-03-23T11:17:03;15.50;1.00
336;DHT22;156;48.738;9.228;2023-03-23T11:19:37;15.50;1.00
336;DHT22;156;48.738;9.228;2023-03-23T11:22:21;15.50;1.00
336;DHT22;156;48.738;9.228;2023-03-23T11:25:00;15.70;1.00
336;DHT22;156;48.738;9.228;2023-03-23T11:27:30;16.00;1.00
336;DHT22;156;48.738;9.228;2023-03-23T11:30:01;15.70;1.00
336;DHT22;156;48.738;9.228;2023-03-23T11:32:36;15.60;1.00
336;DHT22;156;48.738;9.228;2023-03-23T11:35:05;15.60;1.00
336;DHT22;156;48.738;9.228;2023-03-23T11:37:35;15.80;1.00
336;DHT22;156;48.738;9.228;2023-03-23T11:40:16;15.70;1.00
336;DHT22;156;48.738;9.228;2023-03-23T11:42:45;15.90;1.00
336;DHT22;156;48.738;9.228;2023-03-23T11:45:18;16.20;1.00
336;DHT22;156;48.738;9.228;2023-03-23T11:47:57;16.20;1.00
336;DHT22;156;48.738;9.228;2023-03-23T11:50:29;16.10;1.00
336;DHT22;156;48.738;9.228;2023-03-23T11:53:01;16.10;1.00
336;DHT22;156;48.738;9.228;2023-03-23T11:55:33;16.00;1.00
336;DHT22;156;48.738;9.228;2023-03-23T11:58:10;16.20;1.00
336;DHT22;156;48.738;9.228;2023-03-23T12:00:41;15.80;1.00
336;DHT22;156;48.738;9.228;2023-03-23T12:03:45;15.80;1.00
336;DHT22;156;48.738;9.228;2023-03-23T12:06:19;16.20;1.00
336;DHT22;156;48.738;9.228;2023-03-23T12:08:58;16.00;1.00
336;DHT22;156;48.738;9.228;2023-03-23T12:11:31;15.90;1.00
336;DHT22;156;48.738;9.228;2023-03-23T12:14:11;16.00;1.00
336;DHT22;156;48.738;9.228;2023-03-23T12:19:37;15.70;1.00
336;DHT22;156;48.738;9.228;2023-03-23T12:22:17;15.90;1.00
336;DHT22;156;48.738;9.228;2023-03-23T12:24:59;16.00;1.00
336;DHT22;156;48.738;9.228;2023-03-23T12:27:35;16.10;1.00
336;DHT22;156;48.738;9.228;2023-03-23T12:30:21;16.30;1.00
336;DHT22;156;48.738;9.228;2023-03-23T12:33:03;16.30;1.00
336;DHT22;156;48.738;9.228;2023-03-23T12:35:46;16.20;1.00
336;DHT22;156;48.738;9.228;2023-03-23T12:38:34;16.30;1.00
336;DHT22;156;48.738;9.228;2023-03-23T12:41:15;16.40;1.00
336;DHT22;156;48.738;9.228;2023-03-23T12:43:49;16.50;1.00
336;DHT22;156;48.738;9.228;2023-03-23T12:46:35;16.10;1.00
336;DHT22;156;48.738;9.228;2023-03-23T12:49:07;16.20;1.00
336;DHT22;156;48.738;9.228;2023-03-23T12:51:42;16.30;1.00
336;DHT22;156;48.738;9.228;2023-03-23T12:54:14;16.30;1.00
336;DHT22;156;48.738;9.228;2023-03-23T12:56:50;16.40;1.00
336;DHT22;156;48.738;9.228;2023-03-23T12:59:22;16.50;1.00
336;DHT22;156;48.738;9.228;2023-03-23T13:01:57;16.50;1.00
336;DHT22;156;48.738;9.228;2023-03-23T13:04:27;16.50;1.00
336;DHT22;156;48.738;9.228;2023-03-23T13:06:58;16.60;1.00
336;DHT22;156;48.738;9.228;2023-03-23T13:09:34;16.70;1.00
336;DHT22;156;48.738;9.228;2023-03-23T13:12:04;16.60;1.00
336;DHT22;156;48.738;9.228;2023-03-23T13:14:40;16.70;1.00
336;DHT22;156;48.738;9.228;2023-03-23T13:17:18;16.60;1.00
336;DHT22;156;48.738;9.228;2023-03-23T13:20:15;16.30;1.00
336;DHT22;156;48.738;9.228;2023-03-23T13:22:50;16.30;1.00
336;DHT22;156;48.738;9.228;2023-03-23T13:25:24;16.50;1.00
336;DHT22;156;48.738;9.228;2023-03-23T13:27:58;16.60;1.00
336;DHT22;156;48.738;9.228;2023-03-23T13:30:27;16.60;1.00
336;DHT22;156;48.738;9.228;2023-03-23T13:33:02;16.80;1.00
336;DHT22;156;48.738;9.228;2023-03-23T13:35:35;16.90;1.00
336;DHT22;156;48.738;9.228;2023-03-23T13:38:13;17.10;1.00
336;DHT22;156;48.738;9.228;2023-03-23T13:40:44;16.90;1.00
336;DHT22;156;48.738;9.228;2023-03-23T13:43:12;17.00;1.00
336;DHT22;156;48.738;9.228;2023-03-23T13:45:44;16.60;1.00
336;DHT22;156;48.738;9.228;2023-03-23T13:51:02;16.70;1.00
336;DHT22;156;48.738;9.228;2023-03-23T13:53:45;16.70;1.00
336;DHT22;156;48.738;9.228;2023-03-23T13:56:39;16.60;1.00
336;DHT22;156;48.738;9.228;2023-03-23T13:59:17;16.70;1.00
336;DHT22;156;48.738;9.228;2023-03-23T14:01:55;16.70;1.00
336;DHT22;156;48.738;9.228;2023-03-23T14:04:29;16.60;1.00
336;DHT22;156;48.738;9.228;2023-03-23T14:07:09;16.60;1.00
336;DHT22;156;48.738;9.228;2023-03-23T14:09:41;16.80;1.00
336;DHT22;156;48.738;9.228;2023-03-23T14:12:15;16.70;1.00
336;DHT22;156;48.738;9.228;2023-03-23T14:14:45;16.70;1.00
336;DHT22;156;48.738;9.228;2023-03-23T14:17:15;16.60;1.00
336;DHT22;156;48.738;9.228;2023-03-23T14:19:47;16.70;1.00
336;DHT22;156;48.738;9.228;2023-03-23T14:22:18;16.60;1.00
336;DHT22;156;48.738;9.228;2023-03-23T14:24:47;16.60;1.00
336;DHT22;156;48.738;9.228;2023-03-23T14:27:16;16.60;1.00
336;DHT22;156;48.738;9.228;2023-03-23T14:29:43;16.50;1.00
336;DHT22;156;48.738;9.228;2023-03-23T14:32:14;16.60;1.00
336;DHT22;156;48.738;9.228;2023-03-23T14:34:42;16.70;1.00
336;DHT22;156;48.738;9.228;2023-03-23T14:37:11;16.60;1.00
336;DHT22;156;48.738;9.228;2023-03-23T14:39:39;16.60;1.00
336;DHT22;156;48.738;9.228;2023-03-23T14:42:13;16.60;1.00
336;DHT22;156;48.738;9.228;2023-03-23T14:44:42;16.50;1.00
336;DHT22;156;48.738;9.228;2023-03-23T14:47:16;16.60;1.00
336;DHT22;156;48.738;9.228;2023-03-23T14:49:45;16.60;1.00
336;DHT22;156;48.738;9.228;2023-03-23T14:52:13;16.40;1.00
336;DHT22;156;48.738;9.228;2023-03-23T14:54:41;16.50;1.00
336;DHT22;156;48.738;9.228;2023-03-23T14:57:14;16.40;1.00
336;DHT22;156;48.738;9.228;2023-03-23T14:59:42;16.50;1.00
336;DHT22;156;48.738;9.228;2023-03-23T15:02:14;16.50;1.00
336;DHT22;156;48.738;9.228;2023-03-23T15:04:43;16.50;1.00
336;DHT22;156;48.738;9.228;2023-03-23T15:07:12;16.40;1.00
336;DHT22;156;48.738;9.228;2023-03-23T15:09:42;16.60;1.00
336;DHT22;156;48.738;9.228;2023-03-23T15:12:21;16.50;1.00
336;DHT22;156;48.738;9.228;2023-03-23T15:14:51;16.40;1.00
336;DHT22;156;48.738;9.228;2023-03-23T15:17:21;16.50;1.00
336;DHT22;156;48.738;9.228;2023-03-23T15:19:48;16.70;1.00
336;DHT22;156;48.738;9.228;2023-03-23T15:22:21;16.50;1.00
336;DHT22;156;48.738;9.228;2023-03-23T15:24:48;16.50;1.00
336;DHT22;156;48.738;9.228;2023-03-23T15:27:27;16.50;1.00
336;DHT22;156;48.738;9.228;2023-03-23T15:29:55;16.50;1.00
336;DHT22;156;48.738;9.228;2023-03-23T15:32:26;16.50;1.00
336;DHT22;156;48.738;9.228;2023-03-23T15:34:53;16.60;1.00
336;DHT22;156;48.738;9.228;2023-03-23T15:37:25;16.70;1.00
336;DHT22;156;48.738;9.228;2023-03-23T15:39:52;16.50;1.00
336;DHT22;156;48.738;9.228;2023-03-23T15:42:22;16.50;1.00
336;DHT22;156;48.738;9.228;2023-03-23T15:45:12;16.50;1.00
336;DHT22;156;48.738;9.228;2023-03-23T15:47:44;16.40;1.00
336;DHT22;156;48.738;9.228;2023-03-23T15:50:14;16.30;1.00
336;DHT22;156;48.738;9.228;2023-03-23T15:52:41;16.20;1.00
336;DHT22;156;48.738;9.228;2023-03-23T15:55:20;16.20;1.00
336;DHT22;156;48.738;9.228;2023-03-23T15:57:48;16.20;1.00
336;DHT22;156;48.738;9.228;2023-03-23T16:00:18;16.00;1.00
336;DHT22;156;48.738;9.228;2023-03-23T16:02:47;16.10;1.00
336;DHT22;156;48.738;9.228;2023-03-23T16:05:15;16.00;1.00
336;DHT22;156;48.738;9.228;2023-03-23T16:07:42;16.00;1.00
336;DHT22;156;48.738;9.228;2023-03-23T16:10:15;16.00;1.00
336;DHT22;156;48.738;9.228;2023-03-23T16:12:42;16.00;1.00
336;DHT22;156;48.738;9.228;2023-03-23T16:15:09;15.90;1.00
336;DHT22;156;48.738;9.228;2023-03-23T16:17:38;15.90;1.00
336;DHT22;156;48.738;9.228;2023-03-23T16:20:10;15.80;1.00
336;DHT22;156;48.738;9.228;2023-03-23T16:22:38;15.80;1.00
336;DHT22;156;48.738;9.228;2023-03-23T16:25:06;15.80;1.00
336;DHT22;156;48.738;9.228;2023-03-23T16:27:33;15.70;1.00
336;DHT22;156;48.738;9.228;2023-03-23T16:30:00;15.70;1.00
336;DHT22;156;48.738;9.228;2023-03-23T16:32:28;15.70;1.00
336;DHT22;156;48.738;9.228;2023-03-23T16:34:56;15.70;1.00
336;DHT22;156;48.738;9.228;2023-03-23T16:37:23;15.60;1.00
336;DHT22;156;48.738;9.228;2023-03-23T16:39:50;15.70;1.00
336;DHT22;156;48.738;9.228;2023-03-23T16:42:16;15.60;1.00
336;DHT22;156;48.738;9.228;2023-03-23T16:44:43;15.70;1.00
336;DHT22;156;48.738;9.228;2023-03-23T16:47:11;15.60;1.00
336;DHT22;156;48.738;9.228;2023-03-23T16:49:38;15.60;1.00
336;DHT22;156;48.738;9.228;2023-03-23T16:52:06;15.60;1.00
336;DHT22;156;48.738;9.228;2023-03-23T16:54:33;15.60;1.00
336;DHT22;156;48.738;9.228;2023-03-23T16:57:00;15.60;1.00
336;DHT22;156;48.738;9.228;2023-03-23T16:59:27;15.60;1.00
336;DHT22;156;48.738;9.228;2023-03-23T17:01:54;15.60;1.00
336;DHT22;156;48.738;9.228;2023-03-23T17:04:25;15.60;1.00
336;DHT22;156;48.738;9.228;2023-03-23T17:06:51;15.60;1.00
336;DHT22;156;48.738;9.228;2023-03-23T17:09:20;15.60;1.00
336;DHT22;156;48.738;9.228;2023-03-23T17:11:46;15.50;1.00
336;DHT22;156;48.738;9.228;2023-03-23T17:14:13;15.50;1.00
336;DHT22;156;48.738;9.228;2023-03-23T17:16:40;15.50;1.00
336;DHT22;156;48.738;9.228;2023-03-23T17:19:07;15.50;1.00
336;DHT22;156;48.738;9.228;2023-03-23T17:21:34;15.50;1.00
336;DHT22;156;48.738;9.228;2023-03-23T17:24:02;15.40;1.00
336;DHT22;156;48.738;9.228;2023-03-23T17:26:30;15.50;1.00
336;DHT22;156;48.738;9.228;2023-03-23T17:28:57;15.40;1.00
336;DHT22;156;48.738;9.228;2023-03-23T17:31:24;15.40;1.00
336;DHT22;156;48.738;9.228;2023-03-23T17:33:51;15.40;1.00
336;DHT22;156;48.738;9.228;2023-03-23T17:36:18;15.30;1.00
336;DHT22;156;48.738;9.228;2023-03-23T17:38:45;15.30;1.00
336;DHT22;156;48.738;9.228;2023-03-23T17:41:12;15.20;1.00
336;DHT22;156;48.738;9.228;2023-03-23T17:43:41;15.20;1.00
336;DHT22;156;48.738;9.228;2023-03-23T17:46:08;15.30;1.00
336;DHT22;156;48.738;9.228;2023-03-23T17:48:36;15.30;1.00
336;DHT22;156;48.738;9.228;2023-03-23T17:51:03;15.30;1.00
336;DHT22;156;48.738;9.228;2023-03-23T17:53:31;15.30;1.00
336;DHT22;156;48.738;9.228;2023-03-23T17:56:00;15.20;1.00
336;DHT22;156;48.738;9.228;2023-03-23T17:58:27;15.20;1.00
336;DHT22;156;48.738;9.228;2023-03-23T18:00:56;15.10;1.00
336;DHT22;156;48.738;9.228;2023-03-23T18:03:24;15.10;1.00
336;DHT22;156;48.738;9.228;2023-03-23T18:05:56;15.10;1.00
336;DHT22;156;48.738;9.228;2023-03-23T18:08:23;15.10;1.00
336;DHT22;156;48.738;9.228;2023-03-23T18:10:50;15.10;1.00
336;DHT22;156;48.738;9.228;2023-03-23T18:13:17;15.10;1.00
336;DHT22;156;48.738;9.228;2023-03-23T18:15:44;15.10;1.00
336;DHT22;156;48.738;9.228;2023-03-23T18:18:12;15.10;1.00
336;DHT22;156;48.738;9.228;2023-03-23T18:20:39;15.10;1.00
336;DHT22;156;48.738;9.228;2023-03-23T18:23:06;15.00;1.00
336;DHT22;156;48.738;9.228;2023-03-23T18:25:33;15.00;1.00
336;DHT22;156;48.738;9.228;2023-03-23T18:28:00;15.00;1.00
336;DHT22;156;48.738;9.228;2023-03-23T18:30:27;15.00;1.00
336;DHT22;156;48.738;9.228;2023-03-23T18:32:54;15.10;1.00
336;DHT22;156;48.738;9.228;2023-03-23T18:35:22;15.00;1.00
336;DHT22;156;48.738;9.228;2023-03-23T18:37:49;15.00;1.00
336;DHT22;156;48.738;9.228;2023-03-23T18:40:16;15.00;1.00
336;DHT22;156;48.738;9.228;2023-03-23T18:42:45;15.00;1.00
336;DHT22;156;48.738;9.228;2023-03-23T18:45:12;15.00;1.00
336;DHT22;156;48.738;9.228;2023-03-23T18:47:39;15.00;1.00
336;DHT22;156;48.738;9.228;2023-03-23T18:50:07;15.00;1.00